createdAt,value
2022-10-30T00:00:16.100Z,100771.56
2022-10-30T00:02:42.385Z,100779.91
2022-10-30T00:05:08.695Z,100766.91
2022-10-30T00:07:34.942Z,100775.84
2022-10-30T00:10:01.206Z,100770.69
2022-10-30T00:12:27.463Z,100766.03
2022-10-30T00:14:53.729Z,100764.19
2022-10-30T00:17:19.990Z,100759.91
2022-10-30T00:19:46.305Z,100767.16
2022-10-30T00:22:12.565Z,100766.78
2022-10-30T00:24:38.812Z,100760.66
2022-10-30T00:27:05.099Z,100764.19
2022-10-30T00:29:31.374Z,100767.16
2022-10-30T00:31:57.629Z,100761.00
2022-10-30T00:34:23.942Z,100750.97
2022-10-30T00:36:50.187Z,100751.91
2022-10-30T00:39:16.447Z,100752.91
2022-10-30T00:41:42.792Z,100745.31
2022-10-30T00:44:09.051Z,100752.28
2022-10-30T00:46:35.312Z,100746.53
2022-10-30T00:49:01.589Z,100749.00
2022-10-30T00:51:27.833Z,100741.88
2022-10-30T00:53:54.086Z,100748.16
2022-10-30T00:56:20.345Z,100743.09
2022-10-30T00:58:46.595Z,100743.59
2022-10-30T01:01:12.944Z,100744.69
2022-10-30T01:03:39.311Z,100736.22
2022-10-30T01:06:05.571Z,100731.91
2022-10-30T01:08:31.945Z,100728.47
2022-10-30T01:10:58.331Z,100718.53
2022-10-30T01:13:24.600Z,100718.03
2022-10-30T01:15:50.854Z,100710.69
2022-10-30T01:18:17.152Z,100718.16
2022-10-30T01:20:43.393Z,100716.56
2022-10-30T01:23:09.711Z,100718.00
2022-10-30T01:25:35.966Z,100716.06
2022-10-30T01:28:02.266Z,100714.41
2022-10-30T01:30:28.515Z,100713.56
2022-10-30T01:32:55.003Z,100712.81
2022-10-30T01:35:21.582Z,100708.53
2022-10-30T01:37:47.820Z,100705.72
2022-10-30T01:40:14.373Z,100703.88
2022-10-30T01:42:40.623Z,100704.72
2022-10-30T01:45:06.878Z,100700.69
2022-10-30T01:47:33.142Z,100694.09
2022-10-30T01:49:59.411Z,100696.78
2022-10-30T01:52:25.668Z,100695.91
2022-10-30T01:54:51.933Z,100691.50
2022-10-30T01:57:18.190Z,100698.50
2022-10-30T01:59:44.458Z,100704.97
2022-10-30T02:02:10.781Z,100698.81
2022-10-30T02:04:37.131Z,100701.00
2022-10-30T02:07:03.379Z,100704.88
2022-10-30T02:09:29.624Z,100696.47
2022-10-30T02:11:55.873Z,100695.25
2022-10-30T02:14:22.121Z,100701.59
2022-10-30T02:16:48.374Z,100696.81
2022-10-30T02:19:14.625Z,100697.78
2022-10-30T02:21:40.881Z,100697.91
2022-10-30T02:24:07.142Z,100695.31
2022-10-30T02:29:24.021Z,100694.56
2022-10-30T02:31:50.359Z,100687.97
2022-10-30T02:34:16.655Z,100699.75
2022-10-30T02:36:42.910Z,100697.16
2022-10-30T02:39:09.182Z,100680.88
2022-10-30T02:41:35.453Z,100688.97
2022-10-30T02:44:01.953Z,100687.75
2022-10-30T02:46:28.225Z,100686.78
2022-10-30T02:48:54.476Z,100686.13
2022-10-30T02:51:20.741Z,100680.28
2022-10-30T02:53:47.420Z,100679.44
2022-10-30T02:56:13.745Z,100681.03
2022-10-30T02:58:40.123Z,100680.63
2022-10-30T03:01:06.811Z,100673.81
2022-10-30T03:03:33.102Z,100675.75
2022-10-30T03:05:59.402Z,100682.13
2022-10-30T03:08:25.649Z,100684.59
2022-10-30T03:10:51.968Z,100681.66
2022-10-30T03:13:18.221Z,100681.66
2022-10-30T03:15:44.502Z,100681.13
2022-10-30T03:18:10.763Z,100681.13
2022-10-30T03:20:37.063Z,100670.16
2022-10-30T03:23:03.313Z,100674.53
2022-10-30T03:25:29.590Z,100675.53
2022-10-30T03:27:56.115Z,100681.66
2022-10-30T03:30:22.718Z,100683.38
2022-10-30T03:32:48.973Z,100691.16
2022-10-30T03:35:15.285Z,100692.81
2022-10-30T03:37:41.590Z,100679.44
2022-10-30T03:40:07.873Z,100685.69
2022-10-30T03:42:34.124Z,100684.09
2022-10-30T03:45:00.394Z,100693.00
2022-10-30T03:47:26.651Z,100684.47
2022-10-30T03:49:52.916Z,100686.06
2022-10-30T03:52:19.169Z,100685.09
2022-10-30T03:54:45.430Z,100684.38
2022-10-30T03:57:11.695Z,100680.78
2022-10-30T03:59:37.962Z,100690.25
2022-10-30T04:02:04.398Z,100688.41
2022-10-30T04:04:30.770Z,100690.47
2022-10-30T04:06:57.030Z,100678.22
2022-10-30T04:09:23.291Z,100680.94
2022-10-30T04:11:49.572Z,100679.94
2022-10-30T04:14:15.830Z,100685.09
2022-10-30T04:16:42.121Z,100679.81
2022-10-30T04:19:08.402Z,100676.38
2022-10-30T04:21:34.755Z,100668.06
2022-10-30T04:24:01.037Z,100669.66
2022-10-30T04:26:27.288Z,100663.03
2022-10-30T04:28:53.546Z,100656.13
2022-10-30T04:31:23.188Z,100649.41
2022-10-30T04:33:49.434Z,100640.97
2022-10-30T04:36:18.053Z,100633.13
2022-10-30T04:38:44.323Z,100633.13
2022-10-30T04:41:10.597Z,100633.59
2022-10-30T04:43:36.871Z,100631.63
2022-10-30T04:46:07.015Z,100638.34
2022-10-30T04:48:34.953Z,100645.06
2022-10-30T04:51:01.486Z,100653.25
2022-10-30T04:53:27.772Z,100645.06
2022-10-30T04:55:54.167Z,100647.66
2022-10-30T04:58:20.423Z,100646.16
2022-10-30T05:00:46.689Z,100651.66
2022-10-30T05:03:13.061Z,100641.22
2022-10-30T05:05:39.318Z,100643.06
2022-10-30T05:08:05.573Z,100640.13
2022-10-30T05:10:31.824Z,100635.72
2022-10-30T05:12:59.959Z,100634.84
2022-10-30T05:15:26.218Z,100636.47
2022-10-30T05:17:53.246Z,100633.78
2022-10-30T05:20:19.434Z,100631.19
2022-10-30T05:22:45.716Z,100631.81
2022-10-30T05:25:11.963Z,100634.28
2022-10-30T05:27:38.209Z,100644.31
2022-10-30T05:30:04.511Z,100650.66
2022-10-30T05:32:30.800Z,100635.59
2022-10-30T05:34:57.067Z,100642.56
2022-10-30T05:37:23.528Z,100643.31
2022-10-30T05:39:49.774Z,100640.53
2022-10-30T05:42:16.494Z,100639.44
2022-10-30T05:45:02.759Z,100641.38
2022-10-30T05:47:29.002Z,100647.75
2022-10-30T05:49:55.262Z,100648.38
2022-10-30T05:52:21.555Z,100642.47
2022-10-30T05:54:47.807Z,100650.84
2022-10-30T05:57:14.069Z,100648.00
2022-10-30T05:59:40.329Z,100651.44
2022-10-30T06:02:06.746Z,100646.31
2022-10-30T06:04:33.042Z,100639.22
2022-10-30T06:06:59.314Z,100649.28
2022-10-30T06:09:25.636Z,100642.91
2022-10-30T06:11:51.890Z,100640.09
2022-10-30T06:14:18.152Z,100633.63
2022-10-30T06:16:44.405Z,100644.28
2022-10-30T06:19:15.523Z,100644.50
2022-10-30T06:21:45.240Z,100645.88
2022-10-30T06:24:11.517Z,100641.25
2022-10-30T06:26:37.769Z,100640.13
2022-10-30T06:29:04.145Z,100645.00
2022-10-30T06:31:30.407Z,100657.16
2022-10-30T06:33:56.660Z,100656.44
2022-10-30T06:36:22.935Z,100654.75
2022-10-30T06:38:49.196Z,100661.09
2022-10-30T06:41:15.454Z,100661.13
2022-10-30T06:43:41.728Z,100669.13
2022-10-30T06:48:39.163Z,100678.09
2022-10-30T06:51:05.411Z,100672.44
2022-10-30T06:53:31.680Z,100680.78
2022-10-30T06:55:59.075Z,100691.84
2022-10-30T06:58:25.419Z,100679.06
2022-10-30T07:00:51.664Z,100682.03
2022-10-30T07:03:17.916Z,100678.72
2022-10-30T07:05:44.201Z,100674.69
2022-10-30T07:08:10.452Z,100679.47
2022-10-30T07:10:36.705Z,100676.16
2022-10-30T07:13:03.013Z,100676.16
2022-10-30T07:15:29.386Z,100684.72
2022-10-30T07:17:55.980Z,100671.88
2022-10-30T07:20:22.450Z,100680.69
2022-10-30T07:22:48.887Z,100688.66
2022-10-30T07:25:15.142Z,100681.31
2022-10-30T07:27:41.421Z,100680.34
2022-10-30T07:30:07.669Z,100685.22
2022-10-30T07:32:33.917Z,100680.59
2022-10-30T07:35:00.187Z,100685.75
2022-10-30T07:37:26.435Z,100688.06
2022-10-30T07:39:52.690Z,100679.59
2022-10-30T07:42:18.946Z,100677.50
2022-10-30T07:44:45.201Z,100682.78
2022-10-30T07:47:11.481Z,100694.56
2022-10-30T07:49:37.759Z,100696.06
2022-10-30T07:52:04.335Z,100690.03
2022-10-30T07:54:30.601Z,100696.81
2022-10-30T07:56:58.291Z,100698.00
2022-10-30T07:59:24.566Z,100695.44
2022-10-30T08:01:51.051Z,100693.34
2022-10-30T08:04:17.388Z,100695.44
2022-10-30T08:06:46.970Z,100694.19
2022-10-30T08:09:13.243Z,100696.91
2022-10-30T08:11:39.531Z,100688.78
2022-10-30T08:14:05.795Z,100689.03
2022-10-30T08:16:32.061Z,100684.00
2022-10-30T08:18:58.338Z,100682.88
2022-10-30T08:21:24.594Z,100678.50
2022-10-30T08:23:51.614Z,100680.81
2022-10-30T08:26:17.800Z,100682.25
2022-10-30T08:28:44.057Z,100679.91
2022-10-30T08:31:19.347Z,100681.03
2022-10-30T08:33:45.620Z,100688.91
2022-10-30T08:36:11.908Z,100681.44
2022-10-30T08:38:38.234Z,100685.22
2022-10-30T08:41:04.523Z,100687.28
2022-10-30T08:43:30.791Z,100681.94
2022-10-30T08:45:57.065Z,100681.28
2022-10-30T08:48:23.326Z,100679.25
2022-10-30T08:50:49.580Z,100679.97
2022-10-30T08:53:16.014Z,100682.59
2022-10-30T08:55:42.261Z,100674.00
2022-10-30T08:58:08.533Z,100677.56
2022-10-30T09:00:35.556Z,100681.34
2022-10-30T09:03:02.344Z,100677.13
2022-10-30T09:05:28.994Z,100670.53
2022-10-30T09:07:55.443Z,100669.72
2022-10-30T09:10:22.132Z,100663.69
2022-10-30T09:12:48.433Z,100659.31
2022-10-30T09:15:14.689Z,100664.50
2022-10-30T09:17:41.052Z,100667.03
2022-10-30T09:20:07.323Z,100670.19
2022-10-30T09:22:33.591Z,100661.19
2022-10-30T09:24:59.871Z,100681.38
2022-10-30T09:27:27.492Z,100674.50
2022-10-30T09:29:53.759Z,100672.25
2022-10-30T09:32:20.038Z,100674.13
2022-10-30T09:34:46.345Z,100677.53
2022-10-30T09:37:12.666Z,100668.84
2022-10-30T09:39:38.961Z,100680.38
2022-10-30T09:42:05.226Z,100677.81
2022-10-30T09:44:31.496Z,100678.53
2022-10-30T09:46:57.791Z,100680.66
2022-10-30T09:49:24.057Z,100679.25
2022-10-30T09:51:50.306Z,100689.25
2022-10-30T09:54:16.599Z,100679.41
2022-10-30T09:56:42.848Z,100681.44
2022-10-30T09:59:09.164Z,100683.00
2022-10-30T10:01:35.520Z,100685.69
2022-10-30T10:04:02.128Z,100685.38
2022-10-30T10:06:28.469Z,100690.41
2022-10-30T10:08:54.736Z,100686.56
2022-10-30T10:11:20.997Z,100682.00
2022-10-30T10:13:47.262Z,100673.97
2022-10-30T10:16:13.522Z,100686.09
2022-10-30T10:18:39.786Z,100669.91
2022-10-30T10:21:06.039Z,100675.75
2022-10-30T10:23:32.331Z,100678.81
2022-10-30T10:25:58.628Z,100676.94
2022-10-30T10:31:18.081Z,100676.31
2022-10-30T10:33:48.834Z,100679.34
2022-10-30T10:36:17.550Z,100662.47
2022-10-30T10:38:43.801Z,100667.34
2022-10-30T10:41:10.130Z,100668.75
2022-10-30T10:43:36.429Z,100671.69
2022-10-30T10:46:02.689Z,100672.78
2022-10-30T10:48:28.974Z,100667.97
2022-10-30T10:50:55.253Z,100667.69
2022-10-30T10:53:22.126Z,100668.69
2022-10-30T10:55:48.693Z,100671.53
2022-10-30T10:58:14.969Z,100668.81
2022-10-30T11:00:41.236Z,100658.31
2022-10-30T11:03:07.577Z,100660.72
2022-10-30T11:05:34.758Z,100654.47
2022-10-30T11:08:01.834Z,100656.81
2022-10-30T11:10:28.214Z,100654.69
2022-10-30T11:12:54.481Z,100661.84
2022-10-30T11:15:20.795Z,100653.63
2022-10-30T11:17:47.069Z,100656.72
2022-10-30T11:20:13.329Z,100653.28
2022-10-30T11:22:39.610Z,100648.78
2022-10-30T11:25:06.120Z,100637.59
2022-10-30T11:27:32.628Z,100646.06
2022-10-30T11:29:58.911Z,100645.66
2022-10-30T11:32:26.370Z,100642.78
2022-10-30T11:34:52.679Z,100647.97
2022-10-30T11:37:18.930Z,100647.22
2022-10-30T11:39:45.210Z,100648.28
2022-10-30T11:42:11.473Z,100641.59
2022-10-30T11:44:37.815Z,100633.91
2022-10-30T11:47:04.160Z,100636.84
2022-10-30T11:49:30.437Z,100630.31
2022-10-30T11:51:56.727Z,100635.41
2022-10-30T11:54:23.045Z,100636.75
2022-10-30T11:56:49.307Z,100637.44
2022-10-30T11:59:15.575Z,100637.31
2022-10-30T12:01:41.937Z,100630.78
2022-10-30T12:04:08.275Z,100639.44
2022-10-30T12:06:34.538Z,100638.97
2022-10-30T12:09:00.839Z,100635.75
2022-10-30T12:11:27.110Z,100628.75
2022-10-30T12:13:53.374Z,100622.19
2022-10-30T12:16:19.915Z,100631.50
2022-10-30T12:18:46.197Z,100621.97
2022-10-30T12:21:12.648Z,100627.63
2022-10-30T12:23:38.904Z,100630.16
2022-10-30T12:26:05.259Z,100625.75
2022-10-30T12:28:31.596Z,100619.13
2022-10-30T12:30:57.859Z,100622.59
2022-10-30T12:33:24.126Z,100622.44
2022-10-30T12:35:50.381Z,100626.84
2022-10-30T12:38:16.673Z,100615.72
2022-10-30T12:40:42.939Z,100615.56
2022-10-30T12:43:09.202Z,100612.72
2022-10-30T12:45:35.484Z,100611.50
2022-10-30T12:48:02.219Z,100609.94
2022-10-30T12:50:28.806Z,100608.97
2022-10-30T12:52:55.071Z,100597.59
2022-10-30T12:55:21.432Z,100603.03
2022-10-30T12:57:47.695Z,100599.59
2022-10-30T13:00:14.604Z,100597.22
2022-10-30T13:02:40.817Z,100607.63
2022-10-30T13:05:07.074Z,100596.22
2022-10-30T13:07:33.338Z,100603.31
2022-10-30T13:09:59.606Z,100602.94
2022-10-30T13:12:25.860Z,100591.88
2022-10-30T13:14:52.137Z,100589.31
2022-10-30T13:17:18.391Z,100583.63
2022-10-30T13:19:44.661Z,100596.72
2022-10-30T13:22:11.025Z,100593.50
2022-10-30T13:24:37.294Z,100589.66
2022-10-30T13:27:03.542Z,100598.53
2022-10-30T13:29:30.306Z,100589.00
2022-10-30T13:31:56.567Z,100592.59
2022-10-30T13:34:22.948Z,100590.66
2022-10-30T13:36:49.220Z,100585.53
2022-10-30T13:39:15.534Z,100581.28
2022-10-30T13:41:42.281Z,100591.69
2022-10-30T13:44:08.561Z,100574.81
2022-10-30T13:46:34.839Z,100583.16
2022-10-30T13:49:01.134Z,100584.16
2022-10-30T13:51:27.563Z,100580.91
2022-10-30T13:53:53.834Z,100579.75
2022-10-30T13:56:21.848Z,100584.13
2022-10-30T13:58:48.116Z,100586.84
2022-10-30T14:01:15.139Z,100579.00
2022-10-30T14:06:33.499Z,100588.50
2022-10-30T14:08:59.831Z,100588.50
2022-10-30T14:11:26.129Z,100586.59
2022-10-30T14:13:52.422Z,100584.41
2022-10-30T14:16:18.688Z,100583.38
2022-10-30T14:18:44.977Z,100586.72
2022-10-30T14:21:11.240Z,100579.44
2022-10-30T14:23:37.497Z,100584.13
2022-10-30T14:26:06.559Z,100581.81
2022-10-30T14:28:33.202Z,100581.38
2022-10-30T14:30:59.461Z,100582.22
2022-10-30T14:33:25.741Z,100586.28
2022-10-30T14:35:54.885Z,100591.63
2022-10-30T14:38:21.607Z,100585.50
2022-10-30T14:40:47.893Z,100583.59
2022-10-30T14:43:14.153Z,100587.16
2022-10-30T14:45:40.409Z,100584.75
2022-10-30T14:48:06.669Z,100591.53
2022-10-30T14:50:32.948Z,100592.66
2022-10-30T14:52:59.609Z,100588.09
2022-10-30T14:55:26.083Z,100591.28
2022-10-30T14:57:52.417Z,100591.97
2022-10-30T15:00:18.806Z,100603.94
2022-10-30T15:02:45.165Z,100587.31
2022-10-30T15:05:12.734Z,100592.84
2022-10-30T15:07:39.127Z,100596.56
2022-10-30T15:10:05.473Z,100590.75
2022-10-30T15:12:31.743Z,100595.78
2022-10-30T15:14:58.013Z,100589.25
2022-10-30T15:17:24.290Z,100600.81
2022-10-30T15:19:50.571Z,100595.00
2022-10-30T15:22:16.829Z,100599.88
2022-10-30T15:24:43.082Z,100591.31
2022-10-30T15:27:09.354Z,100591.06
2022-10-30T15:29:35.674Z,100603.44
2022-10-30T15:32:02.099Z,100605.75
2022-10-30T15:34:28.408Z,100599.16
2022-10-30T15:36:54.954Z,100604.34
2022-10-30T15:39:21.222Z,100604.38
2022-10-30T15:41:47.513Z,100603.88
2022-10-30T15:44:13.828Z,100603.59
2022-10-30T15:46:40.263Z,100613.16
2022-10-30T15:49:06.532Z,100602.06
2022-10-30T15:51:34.198Z,100610.06
2022-10-30T15:54:00.499Z,100605.78
2022-10-30T15:56:26.767Z,100603.50
2022-10-30T15:58:57.839Z,100602.09
2022-10-30T16:01:24.211Z,100603.38
2022-10-30T16:03:50.613Z,100606.84
2022-10-30T16:06:17.116Z,100608.00
2022-10-30T16:08:43.417Z,100604.56
2022-10-30T16:11:09.685Z,100606.00
2022-10-30T16:13:35.933Z,100604.44
2022-10-30T16:16:02.238Z,100602.03
2022-10-30T16:18:28.592Z,100608.59
2022-10-30T16:20:54.893Z,100619.44
2022-10-30T16:23:21.528Z,100610.91
2022-10-30T16:25:47.810Z,100618.19
2022-10-30T16:28:14.063Z,100613.44
2022-10-30T16:30:40.334Z,100610.88
2022-10-30T16:33:06.596Z,100615.31
2022-10-30T16:35:32.869Z,100612.03
2022-10-30T16:38:02.529Z,100615.03
2022-10-30T16:40:28.849Z,100614.44
2022-10-30T16:42:55.219Z,100617.16
2022-10-30T16:45:21.481Z,100620.28
2022-10-30T16:47:47.789Z,100619.75
2022-10-30T16:50:14.078Z,100620.84
2022-10-30T16:52:40.350Z,100621.75
2022-10-30T16:55:06.632Z,100624.88
2022-10-30T16:57:32.912Z,100627.28
2022-10-30T16:59:59.209Z,100628.13
2022-10-30T17:02:25.520Z,100611.88
2022-10-30T17:04:55.343Z,100620.97
2022-10-30T17:07:24.233Z,100618.44
2022-10-30T17:09:55.823Z,100627.97
2022-10-30T17:12:22.088Z,100632.25
2022-10-30T17:14:48.395Z,100623.38
2022-10-30T17:17:14.662Z,100623.69
2022-10-30T17:19:40.956Z,100619.53
2022-10-30T17:22:07.206Z,100621.09
2022-10-30T17:24:33.467Z,100628.38
2022-10-30T17:26:59.721Z,100624.34
2022-10-30T17:29:26.128Z,100629.03
2022-10-30T17:31:52.393Z,100627.34
2022-10-30T17:34:18.700Z,100630.97
2022-10-30T17:36:45.020Z,100631.81
2022-10-30T17:39:11.363Z,100639.31
2022-10-30T17:41:37.812Z,100646.44
2022-10-30T17:44:04.118Z,100640.84
2022-10-30T17:46:30.393Z,100642.56
2022-10-30T17:48:56.940Z,100645.28
2022-10-30T17:51:23.218Z,100646.25
2022-10-30T17:53:49.542Z,100646.53
2022-10-30T17:56:15.815Z,100644.25
2022-10-30T17:58:42.108Z,100644.38
2022-10-30T18:01:08.387Z,100647.94
2022-10-30T18:03:34.700Z,100648.47
2022-10-30T18:06:01.188Z,100647.88
2022-10-30T18:08:27.489Z,100643.19
2022-10-30T18:10:53.762Z,100642.47
2022-10-30T18:13:20.036Z,100636.47
2022-10-30T18:15:46.309Z,100635.59
2022-10-30T18:18:12.863Z,100639.84
2022-10-30T18:20:39.141Z,100649.19
2022-10-30T18:23:05.539Z,100647.50
2022-10-30T18:25:31.876Z,100645.81
2022-10-30T18:27:58.441Z,100647.31
2022-10-30T18:30:24.709Z,100645.38
2022-10-30T18:32:51.000Z,100649.50
2022-10-30T18:35:17.274Z,100650.06
2022-10-30T18:37:43.537Z,100642.91
2022-10-30T18:40:09.804Z,100647.19
2022-10-30T18:42:36.057Z,100648.16
2022-10-30T18:45:02.330Z,100648.03
2022-10-30T18:47:28.581Z,100655.53
2022-10-30T18:49:56.563Z,100635.81
2022-10-30T18:52:22.729Z,100655.47
2022-10-30T18:54:49.027Z,100648.47
2022-10-30T18:57:15.280Z,100649.22
2022-10-30T18:59:41.541Z,100636.19
2022-10-30T19:02:07.922Z,100640.00
2022-10-30T19:04:34.315Z,100643.38
2022-10-30T19:07:02.065Z,100639.94
2022-10-30T19:09:29.318Z,100639.31
2022-10-30T19:11:55.597Z,100647.56
2022-10-30T19:14:21.862Z,100643.25
2022-10-30T19:16:48.130Z,100647.09
2022-10-30T19:19:14.857Z,100645.38
2022-10-30T19:21:41.116Z,100652.66
2022-10-30T19:24:07.416Z,100643.44
2022-10-30T19:26:34.156Z,100650.09
2022-10-30T19:29:00.415Z,100647.28
2022-10-30T19:31:26.695Z,100649.13
2022-10-30T19:33:57.465Z,100655.53
2022-10-30T19:36:23.993Z,100664.34
2022-10-30T19:38:50.253Z,100656.00
2022-10-30T19:41:16.661Z,100647.78
2022-10-30T19:43:42.949Z,100657.00
2022-10-30T19:46:09.209Z,100654.91
2022-10-30T19:51:21.759Z,100656.00
2022-10-30T19:53:48.143Z,100659.25
2022-10-30T19:56:14.431Z,100659.63
2022-10-30T19:58:40.689Z,100667.38
2022-10-30T20:01:07.019Z,100659.75
2022-10-30T20:03:33.403Z,100671.03
2022-10-30T20:05:59.777Z,100666.16
2022-10-30T20:08:26.091Z,100674.25
2022-10-30T20:10:52.364Z,100662.22
2022-10-30T20:13:18.743Z,100665.16
2022-10-30T20:15:45.039Z,100667.50
2022-10-30T20:18:11.315Z,100666.75
2022-10-30T20:20:37.873Z,100669.81
2022-10-30T20:23:04.126Z,100666.25
2022-10-30T20:25:30.391Z,100667.44
2022-10-30T20:27:57.950Z,100659.34
2022-10-30T20:30:27.001Z,100672.72
2022-10-30T20:32:53.260Z,100675.81
2022-10-30T20:35:19.512Z,100668.06
2022-10-30T20:37:45.774Z,100668.44
2022-10-30T20:40:12.026Z,100665.97
2022-10-30T20:42:38.378Z,100671.97
2022-10-30T20:45:04.668Z,100673.19
2022-10-30T20:47:30.950Z,100670.50
2022-10-30T20:49:57.219Z,100675.66
2022-10-30T20:52:23.490Z,100673.94
2022-10-30T20:54:49.800Z,100670.97
2022-10-30T20:57:16.103Z,100677.09
2022-10-30T20:59:42.364Z,100676.50
2022-10-30T21:02:08.825Z,100683.59
2022-10-30T21:04:35.143Z,100692.69
2022-10-30T21:07:01.421Z,100679.44
2022-10-30T21:09:27.692Z,100683.72
2022-10-30T21:11:55.878Z,100686.00
2022-10-30T21:14:22.147Z,100680.75
2022-10-30T21:16:52.993Z,100694.34
2022-10-30T21:19:19.246Z,100693.59
2022-10-30T21:21:45.566Z,100702.56
2022-10-30T21:24:11.824Z,100698.25
2022-10-30T21:26:38.084Z,100702.31
2022-10-30T21:29:04.885Z,100695.91
2022-10-30T21:31:31.133Z,100702.69
2022-10-30T21:33:57.396Z,100694.91
2022-10-30T21:36:24.650Z,100694.44
2022-10-30T21:38:50.907Z,100699.94
2022-10-30T21:41:17.205Z,100700.66
2022-10-30T21:43:43.455Z,100702.13
2022-10-30T22:00:41.282Z,100712.13
2022-10-30T22:03:07.599Z,100709.91
2022-10-30T22:05:33.856Z,100715.31
2022-10-30T22:08:00.340Z,100717.06
2022-10-30T22:10:26.989Z,100711.16
2022-10-30T22:12:53.270Z,100711.44
2022-10-30T22:15:19.522Z,100702.59
2022-10-30T22:17:45.765Z,100703.47
2022-10-30T22:20:12.079Z,100704.94
2022-10-30T22:22:38.369Z,100713.16
2022-10-30T22:25:04.742Z,100705.09
2022-10-30T22:27:30.993Z,100713.59
2022-10-30T22:29:57.252Z,100711.38
2022-10-30T22:32:23.557Z,100708.66
2022-10-30T22:34:49.899Z,100713.09
2022-10-30T22:37:16.166Z,100718.94
2022-10-30T22:39:42.418Z,100719.91
2022-10-30T22:42:08.718Z,100725.09
2022-10-30T22:44:34.981Z,100716.81
2022-10-30T22:47:01.254Z,100719.72
2022-10-30T22:49:27.522Z,100726.00
2022-10-30T22:51:53.785Z,100724.56
2022-10-30T22:54:20.048Z,100724.78
2022-10-30T22:56:46.314Z,100721.53
2022-10-30T22:59:12.584Z,100726.00
2022-10-30T23:01:38.978Z,100732.06
2022-10-30T23:04:05.297Z,100735.06
2022-10-30T23:06:31.567Z,100727.19
2022-10-30T23:08:57.826Z,100734.63
2022-10-30T23:11:24.123Z,100732.38
2022-10-30T23:13:50.389Z,100726.47
2022-10-30T23:16:16.657Z,100728.19
2022-10-30T23:18:42.914Z,100745.44
2022-10-30T23:21:09.178Z,100743.06
2022-10-30T23:23:35.891Z,100737.66
2022-10-30T23:26:02.145Z,100737.91
2022-10-30T23:28:28.452Z,100748.34
2022-10-30T23:30:54.713Z,100741.53
2022-10-30T23:33:20.967Z,100749.75
2022-10-30T23:35:47.235Z,100748.44
2022-10-30T23:38:13.553Z,100745.88
2022-10-30T23:40:39.797Z,100756.09
2022-10-30T23:43:06.265Z,100757.47
2022-10-30T23:45:32.599Z,100746.81
2022-10-30T23:47:59.101Z,100752.97
2022-10-30T23:50:25.497Z,100747.91
2022-10-30T23:52:51.749Z,100756.47
2022-10-30T23:55:18.012Z,100746.50
2022-10-30T23:57:44.757Z,100751.97
